sensor_id;sensor_type;location;lat;lon;timestamp;P1;durP1;ratioP1;P2;durP2;ratioP2
52642;SDS011;38531;53.296;6.614;2024-02-28T00:04:15;48.63;;;20.85;;
52642;SDS011;38531;53.296;6.614;2024-02-28T00:06:41;52.42;;;21.30;;
52642;SDS011;38531;53.296;6.614;2024-02-28T00:09:07;47.90;;;21.00;;
52642;SDS011;38531;53.296;6.614;2024-02-28T00:11:33;55.10;;;22.25;;
52642;SDS011;38531;53.296;6.614;2024-02-28T00:13:58;48.53;;;21.05;;
52642;SDS011;38531;53.296;6.614;2024-02-28T00:16:27;51.60;;;22.20;;
52642;SDS011;38531;53.296;6.614;2024-02-28T00:18:53;57.08;;;22.65;;
52642;SDS011;38531;53.296;6.614;2024-02-28T00:21:19;53.50;;;22.52;;
52642;SDS011;38531;53.296;6.614;2024-02-28T00:23:45;70.00;;;24.17;;
52642;SDS011;38531;53.296;6.614;2024-02-28T00:26:13;60.20;;;23.67;;
52642;SDS011;38531;53.296;6.614;2024-02-28T00:28:39;59.65;;;24.35;;
52642;SDS011;38531;53.296;6.614;2024-02-28T00:31:05;58.33;;;23.95;;
52642;SDS011;38531;53.296;6.614;2024-02-28T00:33:30;52.22;;;23.27;;
52642;SDS011;38531;53.296;6.614;2024-02-28T00:35:56;59.58;;;23.70;;
52642;SDS011;38531;53.296;6.614;2024-02-28T00:38:22;57.10;;;23.75;;
52642;SDS011;38531;53.296;6.614;2024-02-28T00:40:47;59.33;;;24.33;;
52642;SDS011;38531;53.296;6.614;2024-02-28T00:43:13;55.00;;;23.08;;
52642;SDS011;38531;53.296;6.614;2024-02-28T00:45:39;57.63;;;21.83;;
52642;SDS011;38531;53.296;6.614;2024-02-28T00:48:05;58.88;;;23.30;;
52642;SDS011;38531;53.296;6.614;2024-02-28T00:50:30;56.92;;;22.60;;
52642;SDS011;38531;53.296;6.614;2024-02-28T00:52:56;66.28;;;24.63;;
52642;SDS011;38531;53.296;6.614;2024-02-28T00:55:22;56.45;;;22.92;;
52642;SDS011;38531;53.296;6.614;2024-02-28T00:57:47;59.22;;;23.10;;
52642;SDS011;38531;53.296;6.614;2024-02-28T01:00:13;58.72;;;23.67;;
52642;SDS011;38531;53.296;6.614;2024-02-28T01:02:39;62.88;;;22.75;;
52642;SDS011;38531;53.296;6.614;2024-02-28T01:05:07;63.58;;;24.50;;
52642;SDS011;38531;53.296;6.614;2024-02-28T01:07:32;64.70;;;26.20;;
52642;SDS011;38531;53.296;6.614;2024-02-28T01:09:58;62.83;;;23.73;;
52642;SDS011;38531;53.296;6.614;2024-02-28T01:12:24;63.50;;;25.02;;
52642;SDS011;38531;53.296;6.614;2024-02-28T01:14:50;60.67;;;23.50;;
52642;SDS011;38531;53.296;6.614;2024-02-28T01:17:15;58.67;;;21.90;;
52642;SDS011;38531;53.296;6.614;2024-02-28T01:19:41;51.47;;;21.58;;
52642;SDS011;38531;53.296;6.614;2024-02-28T01:22:07;51.92;;;21.95;;
52642;SDS011;38531;53.296;6.614;2024-02-28T01:24:34;42.28;;;19.50;;
52642;SDS011;38531;53.296;6.614;2024-02-28T01:26:59;40.58;;;19.92;;
52642;SDS011;38531;53.296;6.614;2024-02-28T01:29:25;42.00;;;20.10;;
52642;SDS011;38531;53.296;6.614;2024-02-28T01:31:51;40.42;;;20.17;;
52642;SDS011;38531;53.296;6.614;2024-02-28T01:34:16;42.65;;;20.08;;
52642;SDS011;38531;53.296;6.614;2024-02-28T01:36:43;38.83;;;18.80;;
52642;SDS011;38531;53.296;6.614;2024-02-28T01:39:09;42.45;;;19.13;;
52642;SDS011;38531;53.296;6.614;2024-02-28T01:41:35;42.95;;;19.83;;
52642;SDS011;38531;53.296;6.614;2024-02-28T01:44:00;39.60;;;18.98;;
52642;SDS011;38531;53.296;6.614;2024-02-28T01:46:26;44.15;;;20.00;;
52642;SDS011;38531;53.296;6.614;2024-02-28T01:48:53;39.60;;;18.90;;
52642;SDS011;38531;53.296;6.614;2024-02-28T01:51:20;41.70;;;19.90;;
52642;SDS011;38531;53.296;6.614;2024-02-28T01:53:47;37.40;;;19.08;;
52642;SDS011;38531;53.296;6.614;2024-02-28T01:56:14;39.22;;;19.70;;
52642;SDS011;38531;53.296;6.614;2024-02-28T01:58:41;41.80;;;20.17;;
52642;SDS011;38531;53.296;6.614;2024-02-28T02:01:10;38.97;;;19.38;;
52642;SDS011;38531;53.296;6.614;2024-02-28T02:03:36;42.20;;;19.15;;
52642;SDS011;38531;53.296;6.614;2024-02-28T02:06:02;46.13;;;21.63;;
52642;SDS011;38531;53.296;6.614;2024-02-28T02:08:28;42.20;;;20.33;;
52642;SDS011;38531;53.296;6.614;2024-02-28T02:10:54;42.45;;;19.88;;
52642;SDS011;38531;53.296;6.614;2024-02-28T02:13:20;42.88;;;20.08;;
52642;SDS011;38531;53.296;6.614;2024-02-28T02:15:46;42.78;;;19.33;;
52642;SDS011;38531;53.296;6.614;2024-02-28T02:18:11;46.58;;;20.42;;
52642;SDS011;38531;53.296;6.614;2024-02-28T02:20:38;42.08;;;20.35;;
52642;SDS011;38531;53.296;6.614;2024-02-28T02:23:08;43.25;;;20.48;;
52642;SDS011;38531;53.296;6.614;2024-02-28T02:25:34;45.53;;;21.67;;
52642;SDS011;38531;53.296;6.614;2024-02-28T02:28:12;41.08;;;20.02;;
52642;SDS011;38531;53.296;6.614;2024-02-28T02:30:38;44.97;;;20.50;;
52642;SDS011;38531;53.296;6.614;2024-02-28T02:33:04;48.35;;;20.73;;
52642;SDS011;38531;53.296;6.614;2024-02-28T02:35:31;43.85;;;20.48;;
52642;SDS011;38531;53.296;6.614;2024-02-28T02:37:58;46.10;;;20.85;;
52642;SDS011;38531;53.296;6.614;2024-02-28T02:40:23;47.85;;;21.95;;
52642;SDS011;38531;53.296;6.614;2024-02-28T02:42:49;47.25;;;22.13;;
52642;SDS011;38531;53.296;6.614;2024-02-28T02:45:15;49.55;;;21.73;;
52642;SDS011;38531;53.296;6.614;2024-02-28T02:47:41;46.97;;;22.35;;
52642;SDS011;38531;53.296;6.614;2024-02-28T02:50:09;45.67;;;21.15;;
52642;SDS011;38531;53.296;6.614;2024-02-28T02:52:35;47.65;;;20.80;;
52642;SDS011;38531;53.296;6.614;2024-02-28T02:55:01;45.63;;;20.25;;
52642;SDS011;38531;53.296;6.614;2024-02-28T02:57:27;41.15;;;21.38;;
52642;SDS011;38531;53.296;6.614;2024-02-28T02:59:52;43.83;;;20.23;;
52642;SDS011;38531;53.296;6.614;2024-02-28T03:02:18;43.75;;;20.38;;
52642;SDS011;38531;53.296;6.614;2024-02-28T03:04:44;42.67;;;19.95;;
52642;SDS011;38531;53.296;6.614;2024-02-28T03:07:09;42.83;;;21.33;;
52642;SDS011;38531;53.296;6.614;2024-02-28T03:09:35;46.25;;;20.58;;
52642;SDS011;38531;53.296;6.614;2024-02-28T03:12:01;43.17;;;20.48;;
52642;SDS011;38531;53.296;6.614;2024-02-28T03:14:26;42.85;;;20.60;;
52642;SDS011;38531;53.296;6.614;2024-02-28T03:16:52;44.70;;;21.50;;
52642;SDS011;38531;53.296;6.614;2024-02-28T03:19:18;41.58;;;19.48;;
52642;SDS011;38531;53.296;6.614;2024-02-28T03:21:45;41.22;;;19.60;;
52642;SDS011;38531;53.296;6.614;2024-02-28T03:24:10;44.00;;;20.40;;
52642;SDS011;38531;53.296;6.614;2024-02-28T03:26:36;44.10;;;20.63;;
52642;SDS011;38531;53.296;6.614;2024-02-28T03:29:02;39.95;;;20.73;;
52642;SDS011;38531;53.296;6.614;2024-02-28T03:31:27;44.95;;;19.60;;
52642;SDS011;38531;53.296;6.614;2024-02-28T03:33:53;41.95;;;19.17;;
52642;SDS011;38531;53.296;6.614;2024-02-28T03:36:19;40.92;;;20.33;;
52642;SDS011;38531;53.296;6.614;2024-02-28T03:38:45;39.65;;;20.08;;
52642;SDS011;38531;53.296;6.614;2024-02-28T03:41:10;39.13;;;20.17;;
52642;SDS011;38531;53.296;6.614;2024-02-28T03:43:36;41.03;;;18.75;;
52642;SDS011;38531;53.296;6.614;2024-02-28T03:46:02;46.58;;;20.33;;
52642;SDS011;38531;53.296;6.614;2024-02-28T03:48:27;41.35;;;19.92;;
52642;SDS011;38531;53.296;6.614;2024-02-28T03:50:53;40.45;;;20.15;;
52642;SDS011;38531;53.296;6.614;2024-02-28T03:53:19;37.05;;;19.35;;
52642;SDS011;38531;53.296;6.614;2024-02-28T03:55:44;40.83;;;18.63;;
52642;SDS011;38531;53.296;6.614;2024-02-28T03:58:10;39.75;;;19.15;;
52642;SDS011;38531;53.296;6.614;2024-02-28T04:00:36;39.35;;;19.88;;
52642;SDS011;38531;53.296;6.614;2024-02-28T04:03:02;40.58;;;20.33;;
52642;SDS011;38531;53.296;6.614;2024-02-28T04:05:28;41.85;;;19.75;;
52642;SDS011;38531;53.296;6.614;2024-02-28T04:07:54;40.80;;;19.67;;
52642;SDS011;38531;53.296;6.614;2024-02-28T04:10:20;46.63;;;21.67;;
52642;SDS011;38531;53.296;6.614;2024-02-28T04:12:46;42.50;;;20.48;;
52642;SDS011;38531;53.296;6.614;2024-02-28T04:15:12;39.95;;;20.17;;
52642;SDS011;38531;53.296;6.614;2024-02-28T04:17:38;37.65;;;19.42;;
52642;SDS011;38531;53.296;6.614;2024-02-28T04:20:08;40.13;;;19.25;;
52642;SDS011;38531;53.296;6.614;2024-02-28T04:22:35;42.67;;;19.30;;
52642;SDS011;38531;53.296;6.614;2024-02-28T04:25:00;41.65;;;21.05;;
52642;SDS011;38531;53.296;6.614;2024-02-28T04:27:26;40.65;;;20.00;;
52642;SDS011;38531;53.296;6.614;2024-02-28T04:29:52;44.45;;;20.67;;
52642;SDS011;38531;53.296;6.614;2024-02-28T04:32:17;42.05;;;20.55;;
52642;SDS011;38531;53.296;6.614;2024-02-28T04:34:43;40.42;;;19.42;;
52642;SDS011;38531;53.296;6.614;2024-02-28T04:37:09;42.47;;;20.45;;
52642;SDS011;38531;53.296;6.614;2024-02-28T04:39:34;41.22;;;20.55;;
52642;SDS011;38531;53.296;6.614;2024-02-28T04:42:00;43.35;;;20.60;;
52642;SDS011;38531;53.296;6.614;2024-02-28T04:44:26;45.28;;;20.20;;
52642;SDS011;38531;53.296;6.614;2024-02-28T04:46:52;43.65;;;19.80;;
52642;SDS011;38531;53.296;6.614;2024-02-28T04:49:17;43.33;;;20.80;;
52642;SDS011;38531;53.296;6.614;2024-02-28T04:51:43;42.72;;;20.35;;
52642;SDS011;38531;53.296;6.614;2024-02-28T04:54:09;39.80;;;19.00;;
52642;SDS011;38531;53.296;6.614;2024-02-28T04:56:39;46.17;;;20.30;;
52642;SDS011;38531;53.296;6.614;2024-02-28T04:59:06;43.53;;;19.95;;
52642;SDS011;38531;53.296;6.614;2024-02-28T05:01:32;42.78;;;21.00;;
52642;SDS011;38531;53.296;6.614;2024-02-28T05:04:00;40.55;;;19.60;;
52642;SDS011;38531;53.296;6.614;2024-02-28T05:06:27;41.05;;;19.80;;
52642;SDS011;38531;53.296;6.614;2024-02-28T05:08:53;41.90;;;20.85;;
52642;SDS011;38531;53.296;6.614;2024-02-28T05:11:18;39.22;;;20.67;;
52642;SDS011;38531;53.296;6.614;2024-02-28T05:13:44;46.33;;;20.15;;
52642;SDS011;38531;53.296;6.614;2024-02-28T05:16:13;42.08;;;19.90;;
52642;SDS011;38531;53.296;6.614;2024-02-28T05:18:40;45.65;;;20.17;;
52642;SDS011;38531;53.296;6.614;2024-02-28T05:21:05;43.53;;;20.85;;
52642;SDS011;38531;53.296;6.614;2024-02-28T05:23:31;48.00;;;22.80;;
52642;SDS011;38531;53.296;6.614;2024-02-28T05:25:57;39.55;;;20.20;;
52642;SDS011;38531;53.296;6.614;2024-02-28T05:28:30;42.10;;;21.15;;
52642;SDS011;38531;53.296;6.614;2024-02-28T05:30:56;42.33;;;19.77;;
52642;SDS011;38531;53.296;6.614;2024-02-28T05:33:22;44.20;;;21.77;;
52642;SDS011;38531;53.296;6.614;2024-02-28T05:35:48;46.22;;;21.33;;
52642;SDS011;38531;53.296;6.614;2024-02-28T05:38:13;47.35;;;21.13;;
52642;SDS011;38531;53.296;6.614;2024-02-28T05:40:41;44.00;;;20.20;;
52642;SDS011;38531;53.296;6.614;2024-02-28T05:43:07;46.80;;;21.65;;
52642;SDS011;38531;53.296;6.614;2024-02-28T05:45:33;47.65;;;21.80;;
52642;SDS011;38531;53.296;6.614;2024-02-28T05:47:58;48.72;;;22.90;;
52642;SDS011;38531;53.296;6.614;2024-02-28T05:50:24;44.80;;;22.00;;
52642;SDS011;38531;53.296;6.614;2024-02-28T05:52:50;48.35;;;21.85;;
52642;SDS011;38531;53.296;6.614;2024-02-28T05:55:17;49.15;;;22.25;;
52642;SDS011;38531;53.296;6.614;2024-02-28T05:57:42;49.50;;;24.65;;
52642;SDS011;38531;53.296;6.614;2024-02-28T06:00:08;48.50;;;22.52;;
52642;SDS011;38531;53.296;6.614;2024-02-28T06:02:39;49.35;;;22.52;;
52642;SDS011;38531;53.296;6.614;2024-02-28T06:05:05;49.42;;;22.05;;
52642;SDS011;38531;53.296;6.614;2024-02-28T06:07:31;49.28;;;23.30;;
52642;SDS011;38531;53.296;6.614;2024-02-28T06:09:56;48.65;;;23.75;;
52642;SDS011;38531;53.296;6.614;2024-02-28T06:12:22;54.13;;;22.60;;
52642;SDS011;38531;53.296;6.614;2024-02-28T06:14:49;61.97;;;25.77;;
52642;SDS011;38531;53.296;6.614;2024-02-28T06:17:14;56.40;;;24.73;;
52642;SDS011;38531;53.296;6.614;2024-02-28T06:19:40;58.90;;;23.58;;
52642;SDS011;38531;53.296;6.614;2024-02-28T06:22:06;59.72;;;25.55;;
52642;SDS011;38531;53.296;6.614;2024-02-28T06:24:35;57.55;;;23.05;;
52642;SDS011;38531;53.296;6.614;2024-02-28T06:27:01;52.00;;;23.27;;
52642;SDS011;38531;53.296;6.614;2024-02-28T06:29:27;51.22;;;24.02;;
52642;SDS011;38531;53.296;6.614;2024-02-28T06:31:53;58.65;;;24.35;;
52642;SDS011;38531;53.296;6.614;2024-02-28T06:34:20;53.30;;;22.98;;
52642;SDS011;38531;53.296;6.614;2024-02-28T06:36:47;65.28;;;25.50;;
52642;SDS011;38531;53.296;6.614;2024-02-28T06:39:13;56.85;;;24.30;;
52642;SDS011;38531;53.296;6.614;2024-02-28T06:41:40;52.65;;;23.60;;
52642;SDS011;38531;53.296;6.614;2024-02-28T06:44:06;53.30;;;23.90;;
52642;SDS011;38531;53.296;6.614;2024-02-28T06:46:32;58.15;;;23.85;;
52642;SDS011;38531;53.296;6.614;2024-02-28T06:48:58;67.18;;;25.45;;
52642;SDS011;38531;53.296;6.614;2024-02-28T06:51:26;67.53;;;25.23;;
52642;SDS011;38531;53.296;6.614;2024-02-28T06:53:52;64.50;;;25.60;;
52642;SDS011;38531;53.296;6.614;2024-02-28T06:56:18;61.45;;;24.83;;
52642;SDS011;38531;53.296;6.614;2024-02-28T06:58:43;60.40;;;24.50;;
52642;SDS011;38531;53.296;6.614;2024-02-28T07:01:09;65.78;;;25.63;;
52642;SDS011;38531;53.296;6.614;2024-02-28T07:03:35;64.78;;;25.67;;
52642;SDS011;38531;53.296;6.614;2024-02-28T07:06:00;74.43;;;25.88;;
52642;SDS011;38531;53.296;6.614;2024-02-28T07:08:26;58.90;;;25.15;;
52642;SDS011;38531;53.296;6.614;2024-02-28T07:10:52;62.78;;;27.70;;
52642;SDS011;38531;53.296;6.614;2024-02-28T07:13:21;64.97;;;26.65;;
52642;SDS011;38531;53.296;6.614;2024-02-28T07:15:47;78.90;;;27.00;;
52642;SDS011;38531;53.296;6.614;2024-02-28T07:18:14;71.70;;;27.83;;
52642;SDS011;38531;53.296;6.614;2024-02-28T07:20:40;64.15;;;27.35;;
52642;SDS011;38531;53.296;6.614;2024-02-28T07:23:06;70.75;;;26.92;;
52642;SDS011;38531;53.296;6.614;2024-02-28T07:25:31;85.82;;;28.95;;
52642;SDS011;38531;53.296;6.614;2024-02-28T07:28:00;71.47;;;27.95;;
52642;SDS011;38531;53.296;6.614;2024-02-28T07:30:26;74.40;;;27.52;;
52642;SDS011;38531;53.296;6.614;2024-02-28T07:32:52;82.63;;;29.05;;
52642;SDS011;38531;53.296;6.614;2024-02-28T07:35:17;89.97;;;28.45;;
52642;SDS011;38531;53.296;6.614;2024-02-28T07:37:47;73.93;;;28.90;;
52642;SDS011;38531;53.296;6.614;2024-02-28T07:40:12;91.88;;;29.45;;
52642;SDS011;38531;53.296;6.614;2024-02-28T07:42:39;79.40;;;27.75;;
52642;SDS011;38531;53.296;6.614;2024-02-28T07:45:05;77.25;;;29.05;;
52642;SDS011;38531;53.296;6.614;2024-02-28T07:47:33;94.93;;;30.55;;
52642;SDS011;38531;53.296;6.614;2024-02-28T07:49:59;71.90;;;29.02;;
52642;SDS011;38531;53.296;6.614;2024-02-28T07:52:25;71.55;;;29.27;;
52642;SDS011;38531;53.296;6.614;2024-02-28T07:54:51;77.30;;;29.92;;
52642;SDS011;38531;53.296;6.614;2024-02-28T07:57:17;79.13;;;31.17;;
52642;SDS011;38531;53.296;6.614;2024-02-28T07:59:43;73.82;;;29.40;;
52642;SDS011;38531;53.296;6.614;2024-02-28T08:02:09;75.15;;;30.45;;
52642;SDS011;38531;53.296;6.614;2024-02-28T08:04:36;77.88;;;28.50;;
52642;SDS011;38531;53.296;6.614;2024-02-28T08:07:02;78.13;;;27.83;;
52642;SDS011;38531;53.296;6.614;2024-02-28T08:09:28;64.55;;;28.27;;
52642;SDS011;38531;53.296;6.614;2024-02-28T08:11:54;70.68;;;29.45;;
52642;SDS011;38531;53.296;6.614;2024-02-28T08:14:20;72.25;;;27.67;;
52642;SDS011;38531;53.296;6.614;2024-02-28T08:16:46;69.55;;;28.23;;
52642;SDS011;38531;53.296;6.614;2024-02-28T08:19:12;59.28;;;27.40;;
52642;SDS011;38531;53.296;6.614;2024-02-28T08:21:37;56.63;;;26.80;;
52642;SDS011;38531;53.296;6.614;2024-02-28T08:24:03;60.47;;;26.90;;
52642;SDS011;38531;53.296;6.614;2024-02-28T08:26:30;60.90;;;26.45;;
52642;SDS011;38531;53.296;6.614;2024-02-28T08:28:56;53.40;;;25.05;;
52642;SDS011;38531;53.296;6.614;2024-02-28T08:31:22;64.15;;;26.92;;
52642;SDS011;38531;53.296;6.614;2024-02-28T08:33:48;54.78;;;25.67;;
52642;SDS011;38531;53.296;6.614;2024-02-28T08:36:13;57.40;;;25.75;;
52642;SDS011;38531;53.296;6.614;2024-02-28T08:38:40;50.53;;;25.15;;
52642;SDS011;38531;53.296;6.614;2024-02-28T08:41:06;48.30;;;25.15;;
52642;SDS011;38531;53.296;6.614;2024-02-28T08:43:42;54.08;;;25.38;;
52642;SDS011;38531;53.296;6.614;2024-02-28T08:46:07;52.10;;;24.67;;
52642;SDS011;38531;53.296;6.614;2024-02-28T08:48:33;54.08;;;26.83;;
52642;SDS011;38531;53.296;6.614;2024-02-28T08:50:59;54.50;;;26.63;;
52642;SDS011;38531;53.296;6.614;2024-02-28T08:53:26;52.75;;;26.33;;
52642;SDS011;38531;53.296;6.614;2024-02-28T08:55:51;55.15;;;25.58;;
52642;SDS011;38531;53.296;6.614;2024-02-28T08:58:17;51.15;;;23.92;;
52642;SDS011;38531;53.296;6.614;2024-02-28T09:00:43;53.70;;;24.60;;
52642;SDS011;38531;53.296;6.614;2024-02-28T09:03:08;51.15;;;24.83;;
52642;SDS011;38531;53.296;6.614;2024-02-28T09:05:34;52.13;;;26.10;;
52642;SDS011;38531;53.296;6.614;2024-02-28T09:08:00;47.65;;;25.08;;
52642;SDS011;38531;53.296;6.614;2024-02-28T09:10:27;52.17;;;24.85;;
52642;SDS011;38531;53.296;6.614;2024-02-28T09:12:53;45.65;;;25.17;;
52642;SDS011;38531;53.296;6.614;2024-02-28T09:15:19;51.38;;;25.90;;
52642;SDS011;38531;53.296;6.614;2024-02-28T09:17:45;49.83;;;23.10;;
52642;SDS011;38531;53.296;6.614;2024-02-28T09:20:11;43.72;;;23.15;;
52642;SDS011;38531;53.296;6.614;2024-02-28T09:22:37;47.10;;;23.75;;
52642;SDS011;38531;53.296;6.614;2024-02-28T09:25:03;48.47;;;25.50;;
52642;SDS011;38531;53.296;6.614;2024-02-28T09:27:31;47.53;;;24.23;;
52642;SDS011;38531;53.296;6.614;2024-02-28T09:29:56;46.38;;;25.40;;
52642;SDS011;38531;53.296;6.614;2024-02-28T09:32:22;52.58;;;24.00;;
52642;SDS011;38531;53.296;6.614;2024-02-28T09:34:48;44.08;;;23.33;;
52642;SDS011;38531;53.296;6.614;2024-02-28T09:37:14;46.00;;;24.85;;
52642;SDS011;38531;53.296;6.614;2024-02-28T09:39:42;47.85;;;23.90;;
52642;SDS011;38531;53.296;6.614;2024-02-28T09:42:08;47.92;;;23.48;;
52642;SDS011;38531;53.296;6.614;2024-02-28T09:44:35;50.33;;;24.85;;
52642;SDS011;38531;53.296;6.614;2024-02-28T09:47:02;45.40;;;24.75;;
52642;SDS011;38531;53.296;6.614;2024-02-28T09:49:30;43.00;;;24.08;;
52642;SDS011;38531;53.296;6.614;2024-02-28T09:51:57;45.75;;;24.58;;
52642;SDS011;38531;53.296;6.614;2024-02-28T09:54:24;47.17;;;24.27;;
52642;SDS011;38531;53.296;6.614;2024-02-28T09:56:51;43.75;;;23.33;;
52642;SDS011;38531;53.296;6.614;2024-02-28T09:59:20;49.85;;;24.45;;
52642;SDS011;38531;53.296;6.614;2024-02-28T10:01:52;43.55;;;23.42;;
52642;SDS011;38531;53.296;6.614;2024-02-28T10:04:21;46.33;;;24.08;;
52642;SDS011;38531;53.296;6.614;2024-02-28T10:06:47;44.28;;;23.40;;
52642;SDS011;38531;53.296;6.614;2024-02-28T10:09:15;47.67;;;26.42;;
52642;SDS011;38531;53.296;6.614;2024-02-28T10:11:41;46.17;;;23.65;;
52642;SDS011;38531;53.296;6.614;2024-02-28T10:14:11;43.97;;;23.83;;
52642;SDS011;38531;53.296;6.614;2024-02-28T10:16:42;42.08;;;22.70;;
52642;SDS011;38531;53.296;6.614;2024-02-28T10:19:07;45.92;;;24.88;;
52642;SDS011;38531;53.296;6.614;2024-02-28T10:21:33;42.97;;;22.02;;
52642;SDS011;38531;53.296;6.614;2024-02-28T10:23:59;38.72;;;22.67;;
52642;SDS011;38531;53.296;6.614;2024-02-28T10:26:24;37.17;;;22.85;;
52642;SDS011;38531;53.296;6.614;2024-02-28T10:28:50;38.90;;;20.88;;
52642;SDS011;38531;53.296;6.614;2024-02-28T10:31:17;36.33;;;21.55;;
52642;SDS011;38531;53.296;6.614;2024-02-28T10:33:42;33.38;;;21.50;;
52642;SDS011;38531;53.296;6.614;2024-02-28T10:36:08;38.13;;;22.88;;
52642;SDS011;38531;53.296;6.614;2024-02-28T10:38:34;39.58;;;22.65;;
52642;SDS011;38531;53.296;6.614;2024-02-28T10:41:01;39.65;;;21.25;;
52642;SDS011;38531;53.296;6.614;2024-02-28T10:43:28;37.95;;;22.55;;
52642;SDS011;38531;53.296;6.614;2024-02-28T10:45:58;40.25;;;22.45;;
52642;SDS011;38531;53.296;6.614;2024-02-28T10:48:24;37.80;;;22.27;;
52642;SDS011;38531;53.296;6.614;2024-02-28T10:50:51;39.53;;;23.33;;
52642;SDS011;38531;53.296;6.614;2024-02-28T10:53:20;38.72;;;22.23;;
52642;SDS011;38531;53.296;6.614;2024-02-28T10:55:52;38.60;;;22.05;;
52642;SDS011;38531;53.296;6.614;2024-02-28T10:58:21;45.20;;;23.13;;
52642;SDS011;38531;53.296;6.614;2024-02-28T11:00:49;38.47;;;22.40;;
52642;SDS011;38531;53.296;6.614;2024-02-28T11:03:16;36.95;;;23.27;;
52642;SDS011;38531;53.296;6.614;2024-02-28T11:05:43;35.83;;;22.20;;
52642;SDS011;38531;53.296;6.614;2024-02-28T11:08:32;37.80;;;22.05;;
52642;SDS011;38531;53.296;6.614;2024-02-28T11:11:03;40.00;;;22.33;;
52642;SDS011;38531;53.296;6.614;2024-02-28T11:13:29;40.65;;;23.45;;
52642;SDS011;38531;53.296;6.614;2024-02-28T11:16:08;37.13;;;21.52;;
52642;SDS011;38531;53.296;6.614;2024-02-28T11:18:34;41.38;;;22.95;;
52642;SDS011;38531;53.296;6.614;2024-02-28T11:20:59;35.65;;;22.38;;
52642;SDS011;38531;53.296;6.614;2024-02-28T11:23:26;38.90;;;22.77;;
52642;SDS011;38531;53.296;6.614;2024-02-28T11:28:28;40.17;;;21.42;;
52642;SDS011;38531;53.296;6.614;2024-02-28T11:30:54;38.85;;;22.55;;
52642;SDS011;38531;53.296;6.614;2024-02-28T11:33:20;36.90;;;21.13;;
52642;SDS011;38531;53.296;6.614;2024-02-28T11:35:53;33.95;;;20.40;;
52642;SDS011;38531;53.296;6.614;2024-02-28T11:38:21;33.53;;;20.20;;
52642;SDS011;38531;53.296;6.614;2024-02-28T11:40:49;35.30;;;20.95;;
52642;SDS011;38531;53.296;6.614;2024-02-28T11:43:15;35.15;;;21.77;;
52642;SDS011;38531;53.296;6.614;2024-02-28T11:45:40;32.38;;;20.65;;
52642;SDS011;38531;53.296;6.614;2024-02-28T11:48:07;34.00;;;20.52;;
52642;SDS011;38531;53.296;6.614;2024-02-28T11:50:33;31.45;;;19.52;;
52642;SDS011;38531;53.296;6.614;2024-02-28T11:52:59;36.83;;;22.55;;
52642;SDS011;38531;53.296;6.614;2024-02-28T11:55:27;32.92;;;19.27;;
52642;SDS011;38531;53.296;6.614;2024-02-28T11:57:52;35.38;;;19.73;;
52642;SDS011;38531;53.296;6.614;2024-02-28T12:00:18;31.45;;;19.60;;
52642;SDS011;38531;53.296;6.614;2024-02-28T12:02:44;28.25;;;17.60;;
52642;SDS011;38531;53.296;6.614;2024-02-28T12:05:09;29.05;;;18.15;;
52642;SDS011;38531;53.296;6.614;2024-02-28T12:07:35;31.15;;;18.08;;
52642;SDS011;38531;53.296;6.614;2024-02-28T12:10:02;30.02;;;18.88;;
52642;SDS011;38531;53.296;6.614;2024-02-28T12:12:28;36.40;;;19.67;;
52642;SDS011;38531;53.296;6.614;2024-02-28T12:14:57;28.13;;;18.65;;
52642;SDS011;38531;53.296;6.614;2024-02-28T12:17:28;29.23;;;18.88;;
52642;SDS011;38531;53.296;6.614;2024-02-28T12:19:54;28.30;;;17.98;;
52642;SDS011;38531;53.296;6.614;2024-02-28T12:22:21;31.65;;;19.38;;
52642;SDS011;38531;53.296;6.614;2024-02-28T12:24:47;31.33;;;19.17;;
52642;SDS011;38531;53.296;6.614;2024-02-28T12:27:12;31.85;;;19.58;;
52642;SDS011;38531;53.296;6.614;2024-02-28T12:29:38;34.90;;;19.35;;
52642;SDS011;38531;53.296;6.614;2024-02-28T12:32:04;31.58;;;18.20;;
52642;SDS011;38531;53.296;6.614;2024-02-28T12:34:29;29.58;;;18.55;;
52642;SDS011;38531;53.296;6.614;2024-02-28T12:36:55;36.42;;;20.08;;
52642;SDS011;38531;53.296;6.614;2024-02-28T12:39:21;34.33;;;19.85;;
52642;SDS011;38531;53.296;6.614;2024-02-28T12:41:47;35.63;;;20.33;;
52642;SDS011;38531;53.296;6.614;2024-02-28T12:44:13;33.78;;;19.90;;
52642;SDS011;38531;53.296;6.614;2024-02-28T12:46:39;32.70;;;20.67;;
52642;SDS011;38531;53.296;6.614;2024-02-28T12:49:04;38.38;;;21.25;;
52642;SDS011;38531;53.296;6.614;2024-02-28T12:51:38;35.00;;;20.85;;
52642;SDS011;38531;53.296;6.614;2024-02-28T12:54:05;37.17;;;21.10;;
52642;SDS011;38531;53.296;6.614;2024-02-28T12:56:32;36.15;;;22.33;;
52642;SDS011;38531;53.296;6.614;2024-02-28T12:58:58;38.42;;;22.73;;
52642;SDS011;38531;53.296;6.614;2024-02-28T13:01:25;33.20;;;20.70;;
52642;SDS011;38531;53.296;6.614;2024-02-28T13:03:51;34.75;;;21.27;;
52642;SDS011;38531;53.296;6.614;2024-02-28T13:06:18;37.95;;;21.50;;
52642;SDS011;38531;53.296;6.614;2024-02-28T13:08:43;32.88;;;21.65;;
52642;SDS011;38531;53.296;6.614;2024-02-28T13:11:09;34.30;;;21.83;;
52642;SDS011;38531;53.296;6.614;2024-02-28T13:13:35;38.15;;;23.13;;
52642;SDS011;38531;53.296;6.614;2024-02-28T13:16:01;30.27;;;20.80;;
52642;SDS011;38531;53.296;6.614;2024-02-28T13:18:27;36.03;;;21.35;;
52642;SDS011;38531;53.296;6.614;2024-02-28T13:20:53;30.65;;;21.83;;
52642;SDS011;38531;53.296;6.614;2024-02-28T13:23:19;31.25;;;20.88;;
52642;SDS011;38531;53.296;6.614;2024-02-28T13:25:44;29.58;;;19.08;;
52642;SDS011;38531;53.296;6.614;2024-02-28T13:28:10;35.20;;;21.50;;
52642;SDS011;38531;53.296;6.614;2024-02-28T13:30:36;33.47;;;21.13;;
52642;SDS011;38531;53.296;6.614;2024-02-28T13:33:05;36.50;;;20.83;;
52642;SDS011;38531;53.296;6.614;2024-02-28T13:35:31;29.90;;;20.38;;
52642;SDS011;38531;53.296;6.614;2024-02-28T13:37:57;32.28;;;20.67;;
52642;SDS011;38531;53.296;6.614;2024-02-28T13:40:28;28.35;;;20.65;;
52642;SDS011;38531;53.296;6.614;2024-02-28T13:42:53;30.65;;;20.77;;
52642;SDS011;38531;53.296;6.614;2024-02-28T13:45:19;31.30;;;20.42;;
52642;SDS011;38531;53.296;6.614;2024-02-28T13:47:45;32.65;;;20.50;;
52642;SDS011;38531;53.296;6.614;2024-02-28T13:50:11;32.95;;;21.73;;
52642;SDS011;38531;53.296;6.614;2024-02-28T13:52:37;33.00;;;20.17;;
52642;SDS011;38531;53.296;6.614;2024-02-28T13:55:02;33.03;;;21.65;;
52642;SDS011;38531;53.296;6.614;2024-02-28T13:57:28;31.23;;;19.92;;
52642;SDS011;38531;53.296;6.614;2024-02-28T13:59:54;33.00;;;20.15;;
52642;SDS011;38531;53.296;6.614;2024-02-28T14:02:20;30.88;;;20.40;;
52642;SDS011;38531;53.296;6.614;2024-02-28T14:04:47;28.35;;;19.90;;
52642;SDS011;38531;53.296;6.614;2024-02-28T14:07:14;28.00;;;20.08;;
52642;SDS011;38531;53.296;6.614;2024-02-28T14:09:41;28.90;;;19.40;;
52642;SDS011;38531;53.296;6.614;2024-02-28T14:12:09;29.92;;;19.77;;
52642;SDS011;38531;53.296;6.614;2024-02-28T14:14:35;29.85;;;19.75;;
52642;SDS011;38531;53.296;6.614;2024-02-28T14:17:01;30.67;;;19.80;;
52642;SDS011;38531;53.296;6.614;2024-02-28T14:19:28;31.88;;;19.85;;
52642;SDS011;38531;53.296;6.614;2024-02-28T14:21:53;30.08;;;18.77;;